Time;durP1;ratioP1;P1;durP2;ratioP2;P2;SDS_P1;SDS_P2;PMS_P1;PMS_P2;Temp;Humidity;BMP_temperature;BMP_pressure;BME280_temperature;BME280_humidity;BME280_pressure;Samples;Min_cycle;Max_cycle;Signal;HPM_P1;HPM_P2
2022/01/30 00:00:44;;;;;;;8.93;2.73;;;;;;;5.19;76.14;101387.19;5028585;28;20227;-76
2022/01/30 00:03:12;;;;;;;12.03;2.90;;;;;;;5.13;77.16;101387.09;5025457;28;20209;-77
2022/01/30 00:05:39;;;;;;;8.83;2.70;;;;;;;5.09;77.86;101382.69;5028906;28;20239;-76
2022/01/30 00:08:05;;;;;;;11.07;2.70;;;;;;;5.02;79.04;101348.09;5029189;28;20203;-76
2022/01/30 00:10:37;;;;;;;9.23;2.87;;;;;;;5.03;77.80;101356.72;5030883;28;20729;-76
2022/01/30 00:13:05;;;;;;;17.90;3.90;;;;;;;5.03;77.67;101383.47;5028902;28;20202;-75
2022/01/30 00:15:39;;;;;;;14.63;3.43;;;;;;;4.94;78.08;101349.66;5028964;28;20226;-77
2022/01/30 00:18:14;;;;;;;7.20;2.30;;;;;;;4.96;76.62;101354.00;5029353;28;20206;-77
2022/01/30 00:20:45;;;;;;;13.20;2.53;;;;;;;4.95;77.61;101382.44;5028167;28;20689;-76
2022/01/30 00:23:17;;;;;;;10.40;2.33;;;;;;;4.99;76.70;101397.19;5027791;28;20194;-77
2022/01/30 00:25:50;;;;;;;10.37;3.43;;;;;;;5.00;76.75;101401.53;5029466;28;20218;-76
2022/01/30 00:28:19;;;;;;;9.50;2.70;;;;;;;4.99;77.24;101399.75;5030317;28;20206;-76
2022/01/30 00:33:20;;;;;;;7.47;1.97;;;;;;;5.16;75.23;101457.03;5080507;28;20214;-79
2022/01/30 00:35:48;;;;;;;9.87;2.30;;;;;;;5.20;74.74;101439.84;5079229;28;20212;-79
2022/01/30 00:38:18;;;;;;;9.70;2.20;;;;;;;5.17;75.31;101444.13;5074797;28;20205;-79
2022/01/30 00:40:46;;;;;;;9.13;2.30;;;;;;;5.17;74.24;101464.84;5074771;28;20294;-78
2022/01/30 00:43:12;;;;;;;9.83;2.23;;;;;;;5.28;73.89;101515.94;5054260;28;20210;-78
2022/01/30 00:45:39;;;;;;;11.97;2.90;;;;;;;5.35;72.74;101523.88;5035229;28;20210;-79
2022/01/30 00:48:06;;;;;;;9.77;2.50;;;;;;;5.31;73.56;101510.81;5034129;28;20620;-78
2022/01/30 00:50:33;;;;;;;11.27;3.50;;;;;;;5.24;73.62;101476.19;5034893;28;20204;-78
2022/01/30 00:53:01;;;;;;;10.80;2.87;;;;;;;5.25;74.91;101475.34;5035105;28;20292;-76
2022/01/30 00:55:30;;;;;;;10.10;2.77;;;;;;;5.31;73.74;101470.28;5034911;28;20641;-79
2022/01/30 00:57:58;;;;;;;8.37;2.70;;;;;;;5.18;74.98;101461.41;5035719;28;20783;-79
2022/01/30 01:00:27;;;;;;;9.97;2.77;;;;;;;5.29;73.34;101507.31;5035178;28;20306;-79
2022/01/30 01:02:53;;;;;;;8.37;2.63;;;;;;;5.36;72.72;101512.66;5049875;28;20225;-78
2022/01/30 01:05:20;;;;;;;7.07;2.20;;;;;;;5.41;71.56;101543.84;5054622;28;20255;-78
2022/01/30 01:07:48;;;;;;;9.60;2.40;;;;;;;5.42;71.70;101555.06;5055440;28;20202;-79
2022/01/30 01:10:28;;;;;;;15.63;2.87;;;;;;;5.38;72.42;101548.94;5054978;28;20266;-79
2022/01/30 01:13:08;;;;;;;9.33;2.40;;;;;;;5.41;70.77;101556.78;5055939;28;20247;-78
2022/01/30 01:23:50;;;;;;;6.93;3.03;;;;;;;5.40;70.02;101640.47;5055088;28;20278;-79
2022/01/30 01:26:18;;;;;;;6.50;1.90;;;;;;;5.26;71.66;101616.00;5062405;28;20208;-79
2022/01/30 01:28:46;;;;;;;11.40;2.93;;;;;;;5.26;70.69;101608.22;5057497;28;20259;-79
2022/01/30 01:31:13;;;;;;;12.77;3.20;;;;;;;5.31;71.52;101628.19;5057015;28;20223;-78
2022/01/30 01:33:52;;;;;;;10.43;2.53;;;;;;;5.28;71.53;101611.72;5061546;28;20191;-79
2022/01/30 01:36:18;;;;;;;12.43;2.77;;;;;;;5.17;72.32;101595.94;5068436;28;20233;-78
2022/01/30 01:38:45;;;;;;;7.67;2.30;;;;;;;5.12;71.78;101593.25;5072444;28;20263;-78
2022/01/30 01:41:12;;;;;;;10.80;2.40;;;;;;;5.06;73.04;101581.91;5071075;28;20288;-78
2022/01/30 01:43:39;;;;;;;7.70;2.63;;;;;;;5.05;72.58;101562.91;5066064;28;20200;-78
2022/01/30 01:46:13;;;;;;;9.60;2.40;;;;;;;4.98;72.94;101556.72;5052387;28;20314;-78
2022/01/30 01:48:41;;;;;;;7.07;1.40;;;;;;;4.97;71.82;101556.69;5051875;28;20207;-79
2022/01/30 01:51:15;;;;;;;12.20;3.17;;;;;;;4.90;72.29;101552.25;5046127;28;20228;-78
2022/01/30 01:53:42;;;;;;;15.10;2.20;;;;;;;4.88;73.15;101533.22;5038713;28;20197;-78
2022/01/30 01:56:09;;;;;;;8.63;3.10;;;;;;;4.82;73.47;101508.09;5038481;28;20212;-78
2022/01/30 01:58:35;;;;;;;6.50;2.20;;;;;;;4.77;74.73;101489.00;5043378;28;20260;-78
2022/01/30 02:01:03;;;;;;;9.43;2.47;;;;;;;4.77;74.84;101451.06;5057871;28;20227;-79
2022/01/30 02:03:29;;;;;;;10.27;2.87;;;;;;;4.71;75.45;101457.84;5058277;28;20613;-78
2022/01/30 02:06:00;;;;;;;13.33;3.03;;;;;;;4.78;74.73;101468.34;5057738;28;20199;-78
2022/01/30 02:08:34;;;;;;;16.77;3.27;;;;;;;4.81;74.84;101464.06;5058347;28;20214;-78
2022/01/30 02:11:04;;;;;;;10.50;2.50;;;;;;;4.77;75.06;101487.28;5057948;28;20202;-78
2022/01/30 02:24:41;;;;;;;10.87;2.47;;;;;;;4.83;74.95;101467.56;5057955;28;20290;-79
2022/01/30 02:27:12;;;;;;;14.67;2.83;;;;;;;4.86;74.38;101481.44;5057845;28;20263;-78
2022/01/30 02:29:39;;;;;;;10.03;2.30;;;;;;;4.92;74.15;101488.47;5057839;28;20199;-78
2022/01/30 02:32:06;;;;;;;8.67;1.90;;;;;;;4.88;74.89;101486.66;5056113;28;20234;-78
2022/01/30 02:34:33;;;;;;;10.77;2.33;;;;;;;4.85;74.86;101460.72;5057967;28;20199;-78
2022/01/30 02:37:00;;;;;;;9.37;2.43;;;;;;;4.89;73.88;101470.28;5057597;28;20210;-77
2022/01/30 02:39:27;;;;;;;14.10;2.30;;;;;;;4.88;73.82;101469.41;5051991;28;20194;-78
2022/01/30 02:41:55;;;;;;;9.40;2.70;;;;;;;4.81;74.44;101477.88;5036404;28;20232;-78
2022/01/30 02:44:26;;;;;;;10.60;2.40;;;;;;;4.70;74.42;101438.00;5037619;28;20212;-78
2022/01/30 02:46:56;;;;;;;8.40;1.83;;;;;;;4.81;72.69;101503.75;5038030;28;20203;-78
2022/01/30 02:49:40;;;;;;;7.30;2.17;;;;;;;4.83;72.26;101516.72;5037001;28;20273;-79
2022/01/30 02:52:08;;;;;;;10.20;2.67;;;;;;;4.88;71.69;101530.63;5038538;28;20229;-78
2022/01/30 02:54:35;;;;;;;7.67;2.00;;;;;;;4.79;72.12;101541.63;5036910;28;20580;-78
2022/01/30 02:57:03;;;;;;;12.30;2.43;;;;;;;4.75;72.75;101552.75;5037044;28;20214;-79
2022/01/30 02:59:29;;;;;;;6.80;2.10;;;;;;;4.59;74.33;101484.28;5036788;28;20211;-78
2022/01/30 03:01:55;;;;;;;14.07;3.07;;;;;;;4.53;74.92;101453.13;5043206;28;20765;-78
2022/01/30 03:04:22;;;;;;;10.30;2.77;;;;;;;4.47;75.75;101447.84;5056051;28;20197;-78
2022/01/30 03:06:48;;;;;;;14.27;3.53;;;;;;;4.54;75.31;101452.31;5055933;28;20280;-78
2022/01/30 03:09:15;;;;;;;7.47;2.53;;;;;;;4.53;75.94;101464.34;5056086;28;20211;-78
2022/01/30 03:11:41;;;;;;;12.70;2.97;;;;;;;4.54;75.97;101427.31;5056014;28;20230;-79
2022/01/30 03:14:09;;;;;;;10.53;3.20;;;;;;;4.62;75.44;101434.34;5056716;28;20214;-77
2022/01/30 03:16:35;;;;;;;16.80;3.00;;;;;;;4.64;75.35;101450.78;5055915;28;20745;-78
2022/01/30 03:19:02;;;;;;;10.20;2.90;;;;;;;4.63;75.82;101456.78;5056243;28;20201;-78
2022/01/30 03:21:28;;;;;;;8.17;1.83;;;;;;;4.62;75.39;101452.44;5044682;28;20269;-79
2022/01/30 03:23:55;;;;;;;12.20;2.63;;;;;;;4.56;76.08;101442.88;5036330;28;20253;-79
2022/01/30 03:26:21;;;;;;;11.60;3.00;;;;;;;4.60;75.50;101470.53;5036723;28;20205;-78
2022/01/30 03:28:50;;;;;;;8.23;2.03;;;;;;;4.66;74.22;101488.78;5036799;28;20206;-78
2022/01/30 03:31:20;;;;;;;11.63;2.37;;;;;;;4.73;73.32;101519.09;5036344;28;20288;-78
2022/01/30 03:33:46;;;;;;;7.13;2.40;;;;;;;4.68;74.65;101512.09;5055712;28;20201;-78
2022/01/30 03:36:12;;;;;;;10.67;2.87;;;;;;;4.70;74.33;101490.59;5046346;28;20622;-78
2022/01/30 03:38:39;;;;;;;9.10;3.13;;;;;;;4.75;74.58;101517.41;5035996;28;20209;-78
2022/01/30 03:41:05;;;;;;;9.67;2.07;;;;;;;4.78;74.59;101521.81;5035565;28;20226;-79
2022/01/30 03:43:32;;;;;;;7.37;1.90;;;;;;;4.76;74.60;101521.75;5048004;28;20204;-80
2022/01/30 03:45:58;;;;;;;9.43;2.53;;;;;;;4.71;75.80;101515.59;5055927;28;20208;-79
2022/01/30 03:48:26;;;;;;;7.90;3.07;;;;;;;4.76;75.26;101521.75;5055323;28;20205;-79
2022/01/30 03:50:52;;;;;;;11.10;3.50;;;;;;;4.65;75.97;101496.50;5050798;28;20250;-78
2022/01/30 03:53:18;;;;;;;10.57;2.40;;;;;;;4.64;75.41;101471.47;5037888;28;20668;-78
2022/01/30 03:55:45;;;;;;;9.90;2.87;;;;;;;4.67;74.62;101511.19;5037428;28;20366;-79
2022/01/30 03:58:12;;;;;;;14.30;2.77;;;;;;;4.66;74.33;101527.56;5038334;28;20276;-79
2022/01/30 04:00:39;;;;;;;15.97;3.63;;;;;;;4.62;74.75;101523.16;5037565;28;20695;-79
2022/01/30 04:03:05;;;;;;;10.40;2.90;;;;;;;4.56;75.77;101510.97;5053916;28;20228;-79
2022/01/30 04:05:33;;;;;;;9.67;2.30;;;;;;;4.56;75.71;101521.31;5054376;28;20206;-77
2022/01/30 04:08:02;;;;;;;5.47;1.57;;;;;;;4.57;75.25;101524.75;5048357;28;20247;-79
2022/01/30 04:10:29;;;;;;;5.53;2.13;;;;;;;4.55;75.65;101526.44;5055853;28;20201;-79
2022/01/30 04:12:56;;;;;;;11.53;2.90;;;;;;;4.56;75.87;101510.09;5055208;28;20280;-78
2022/01/30 04:15:23;;;;;;;16.83;2.97;;;;;;;4.46;76.57;101471.91;5055333;28;20206;-79
2022/01/30 04:17:50;;;;;;;10.03;2.40;;;;;;;4.42;76.52;101436.50;5055181;28;20211;-79
2022/01/30 04:20:17;;;;;;;9.27;3.00;;;;;;;4.41;76.79;101473.53;5053389;28;20212;-78
2022/01/30 04:22:45;;;;;;;10.07;3.63;;;;;;;4.26;78.10;101451.69;5035024;28;20258;-79
2022/01/30 04:25:11;;;;;;;5.20;1.90;;;;;;;4.32;77.07;101446.66;5035368;28;20277;-78
2022/01/30 04:27:37;;;;;;;7.20;2.23;;;;;;;4.32;76.90;101479.34;5036365;28;20252;-79
2022/01/30 04:30:06;;;;;;;7.67;2.37;;;;;;;4.32;76.73;101481.94;5037140;28;20210;-79
2022/01/30 04:32:33;;;;;;;10.83;2.57;;;;;;;4.32;77.05;101489.69;5046493;28;20279;-79
2022/01/30 04:35:10;;;;;;;12.50;3.40;;;;;;;4.36;76.14;101486.34;5054927;28;20229;-78
2022/01/30 04:37:50;;;;;;;9.30;2.57;;;;;;;4.33;76.54;101500.06;5035705;28;20220;-79
2022/01/30 04:40:43;;;;;;;11.83;3.00;;;;;;;4.26;77.02;101467.19;5034630;28;20194;-80
2022/01/30 04:54:56;;;;;;;17.53;2.83;;;;;;;4.20;75.82;101479.94;5058342;28;20259;-79
2022/01/30 04:57:24;;;;;;;10.93;2.87;;;;;;;4.15;76.36;101491.91;5057248;28;20222;-79
2022/01/30 05:00:06;;;;;;;9.30;2.67;;;;;;;4.08;76.52;101458.97;5056274;28;20567;-79
2022/01/30 05:02:51;;;;;;;16.00;2.93;;;;;;;4.10;76.83;101467.63;5054548;28;20236;-79
2022/01/30 05:05:42;;;;;;;9.47;2.23;;;;;;;4.17;77.19;101483.34;5054315;28;20203;-79
2022/01/30 05:08:10;;;;;;;13.70;3.43;;;;;;;4.22;77.54;101452.41;5050556;28;20198;-79
2022/01/30 05:10:36;;;;;;;9.00;2.53;;;;;;;3.86;83.14;101356.88;5034270;28;20210;-78
2022/01/30 05:13:09;;;;;;;14.40;3.63;;;;;;;3.70;84.74;101267.84;5035323;28;20470;-78
2022/01/30 05:15:36;;;;;;;9.90;2.73;;;;;;;3.80;83.64;101289.59;5035161;28;20606;-79
2022/01/30 05:18:02;;;;;;;10.03;2.53;;;;;;;3.84;82.35;101297.41;5034367;28;20206;-79
2022/01/30 05:20:30;;;;;;;12.30;2.53;;;;;;;3.83;81.94;101318.94;5041263;28;20200;-79
2022/01/30 05:22:57;;;;;;;13.37;3.73;;;;;;;3.80;80.99;101324.00;5055443;28;20233;-79
2022/01/30 05:25:24;;;;;;;10.90;2.97;;;;;;;3.84;79.91;101367.16;5054685;28;20202;-78
2022/01/30 05:27:51;;;;;;;14.57;3.37;;;;;;;3.86;79.54;101386.13;5054693;28;20206;-79
2022/01/30 05:30:19;;;;;;;15.30;3.67;;;;;;;3.81;79.76;101405.84;5054972;28;20258;-79
2022/01/30 05:32:46;;;;;;;8.07;2.50;;;;;;;3.85;79.82;101415.41;5053867;28;20264;-78
2022/01/30 05:35:14;;;;;;;11.37;3.63;;;;;;;3.90;78.79;101429.28;5050802;28;20734;-79
2022/01/30 05:37:42;;;;;;;16.13;3.80;;;;;;;3.97;78.00;101464.75;5034948;28;20233;-78
2022/01/30 05:40:09;;;;;;;13.33;4.10;;;;;;;3.90;78.49;101442.19;5034310;28;20248;-78
2022/01/30 05:42:38;;;;;;;21.77;4.80;;;;;;;3.95;77.44;101470.75;5034086;28;20774;-79
2022/01/30 05:45:13;;;;;;;7.87;2.83;;;;;;;4.02;77.29;101501.03;5034546;28;20202;-78
2022/01/30 05:47:46;;;;;;;12.60;3.20;;;;;;;4.06;77.50;101504.56;5034194;28;20260;-78
2022/01/30 05:50:14;;;;;;;20.70;3.37;;;;;;;4.00;78.00;101497.53;5045363;28;20194;-79
2022/01/30 05:52:40;;;;;;;9.17;3.30;;;;;;;3.98;77.98;101483.72;5054653;28;20253;-78
2022/01/30 05:55:07;;;;;;;16.17;3.37;;;;;;;3.91;78.52;101479.25;5053576;28;20210;-78
2022/01/30 05:57:33;;;;;;;16.33;4.20;;;;;;;3.89;78.28;101484.38;5054595;28;20212;-78
2022/01/30 06:00:00;;;;;;;10.80;3.33;;;;;;;3.88;78.03;101503.28;5053525;28;20205;-78
2022/01/30 06:02:26;;;;;;;20.00;4.37;;;;;;;3.82;78.65;101469.53;5053394;28;20312;-78
2022/01/30 06:04:54;;;;;;;21.97;3.87;;;;;;;3.77;78.99;101487.50;5052892;28;20263;-78
2022/01/30 06:07:27;;;;;;;16.70;4.13;;;;;;;3.78;79.17;101454.81;5054099;28;20214;-78
2022/01/30 06:09:53;;;;;;;14.00;3.47;;;;;;;3.74;79.73;101484.84;5053574;28;20258;-79
2022/01/30 06:12:19;;;;;;;21.97;4.77;;;;;;;3.70;80.47;101470.09;5054687;28;20217;-78
2022/01/30 06:14:47;;;;;;;13.40;3.03;;;;;;;3.70;79.44;101479.56;5053784;28;20209;-78
2022/01/30 06:17:13;;;;;;;18.60;3.57;;;;;;;3.74;79.12;101494.28;5054092;28;20251;-79
2022/01/30 06:19:39;;;;;;;15.70;4.30;;;;;;;3.72;78.98;101483.06;5056025;28;20201;-78
2022/01/30 06:22:07;;;;;;;12.90;4.33;;;;;;;3.70;78.51;101459.78;5057693;28;20704;-77
2022/01/30 06:24:33;;;;;;;21.77;4.57;;;;;;;3.70;78.02;101498.50;5057670;28;20213;-78
2022/01/30 06:27:00;;;;;;;14.20;4.13;;;;;;;3.72;78.14;101503.72;5057597;28;20211;-77
2022/01/30 06:29:26;;;;;;;18.40;3.97;;;;;;;3.65;77.69;101523.34;5057342;28;20688;-78
2022/01/30 06:31:53;;;;;;;18.13;4.90;;;;;;;3.69;76.04;101521.72;5056666;28;20238;-77
2022/01/30 06:34:19;;;;;;;10.57;3.10;;;;;;;3.68;75.88;101535.44;5090801;22;20236;-76
2022/01/30 06:36:46;;;;;;;15.57;4.30;;;;;;;3.60;76.24;101550.72;5086912;28;20713;-76
2022/01/30 06:39:14;;;;;;;21.70;3.93;;;;;;;3.56;76.20;101547.19;5093891;28;20203;-77
2022/01/30 06:41:40;;;;;;;13.07;4.47;;;;;;;3.60;75.22;101555.91;5094563;28;20224;-77
2022/01/30 06:44:08;;;;;;;14.00;4.07;;;;;;;3.61;74.13;101586.06;5078509;28;20275;-76
2022/01/30 06:46:34;;;;;;;12.57;3.73;;;;;;;3.61;74.62;101585.16;5074072;28;20258;-76
2022/01/30 06:49:00;;;;;;;14.77;4.20;;;;;;;3.60;74.39;101596.34;5073654;28;20679;-76
2022/01/30 06:51:27;;;;;;;19.13;4.10;;;;;;;3.63;74.96;101598.97;5073604;28;20206;-77
2022/01/30 06:53:53;;;;;;;16.97;3.87;;;;;;;3.58;76.15;101581.66;5062028;28;20229;-77
2022/01/30 06:56:21;;;;;;;19.37;5.00;;;;;;;3.60;76.00;101565.34;5054227;28;20282;-77
2022/01/30 06:58:47;;;;;;;19.37;4.63;;;;;;;3.51;76.28;101553.09;5054129;28;20209;-76
2022/01/30 07:01:14;;;;;;;23.03;5.07;;;;;;;3.57;76.05;101546.38;5053415;28;20201;-77
2022/01/30 07:03:40;;;;;;;19.00;5.17;;;;;;;3.67;75.29;101569.88;5059709;28;20274;-77
2022/01/30 07:06:06;;;;;;;17.37;4.17;;;;;;;3.60;75.78;101567.94;5073445;28;20198;-76
2022/01/30 07:08:33;;;;;;;24.10;4.67;;;;;;;3.64;75.48;101572.34;5073348;28;20212;-76
2022/01/30 07:10:59;;;;;;;15.87;4.10;;;;;;;3.57;75.30;101613.50;5073441;28;20213;-76
2022/01/30 07:13:27;;;;;;;18.13;4.53;;;;;;;3.61;74.57;101624.78;5073538;28;20221;-76
2022/01/30 07:15:53;;;;;;;18.13;3.80;;;;;;;3.69;73.50;101650.81;5073447;28;20201;-77
2022/01/30 07:18:20;;;;;;;18.83;4.40;;;;;;;3.73;73.05;101692.25;5073239;28;20258;-77
2022/01/30 07:20:46;;;;;;;16.10;4.10;;;;;;;3.70;72.95;101680.97;5072942;28;20589;-77
2022/01/30 07:23:13;;;;;;;21.80;4.57;;;;;;;3.61;73.32;101701.34;5073441;28;20236;-75
2022/01/30 07:25:40;;;;;;;16.10;4.50;;;;;;;3.65;72.87;101718.66;5073593;28;20285;-77
2022/01/30 07:28:06;;;;;;;27.90;4.97;;;;;;;3.76;72.40;101735.38;5068344;28;20228;-77
2022/01/30 07:30:34;;;;;;;18.47;4.03;;;;;;;3.73;72.19;101743.91;5052181;28;20205;-77
2022/01/30 07:33:01;;;;;;;15.80;5.13;;;;;;;3.72;72.89;101749.88;5053737;28;20225;-75
2022/01/30 07:35:27;;;;;;;21.93;4.60;;;;;;;3.71;72.74;101771.41;5073152;28;20201;-77
2022/01/30 07:37:54;;;;;;;30.13;5.47;;;;;;;3.80;72.38;101775.94;5073210;28;20212;-77
2022/01/30 07:40:20;;;;;;;17.00;4.27;;;;;;;3.77;72.25;101776.75;5072979;28;20208;-78
2022/01/30 07:42:47;;;;;;;17.87;5.27;;;;;;;3.92;70.91;101819.34;5072674;28;20250;-77
2022/01/30 07:45:14;;;;;;;16.37;4.33;;;;;;;3.94;71.21;101812.53;5073027;28;20752;-76
2022/01/30 07:47:41;;;;;;;15.17;3.87;;;;;;;3.86;71.54;101822.63;5071520;28;20267;-77
2022/01/30 07:50:08;;;;;;;16.80;4.00;;;;;;;3.82;71.88;101813.03;5052338;28;20621;-77
2022/01/30 07:52:35;;;;;;;17.17;4.73;;;;;;;3.91;70.32;101823.66;5054247;28;20260;-77
2022/01/30 07:55:01;;;;;;;16.60;3.97;;;;;;;3.92;70.23;101842.59;5055421;28;20279;-77
2022/01/30 07:57:28;;;;;;;19.93;4.97;;;;;;;3.91;70.18;101822.78;5055501;28;20214;-77
2022/01/30 07:59:54;;;;;;;12.63;3.83;;;;;;;3.92;69.82;101865.84;5054521;28;20210;-77
2022/01/30 08:02:20;;;;;;;17.03;5.87;;;;;;;3.93;69.80;101872.78;5055195;28;20630;-78
2022/01/30 08:04:48;;;;;;;19.13;4.73;;;;;;;3.90;70.01;101883.00;5068199;28;20274;-78
2022/01/30 08:07:15;;;;;;;14.37;4.07;;;;;;;3.90;69.93;101878.72;5072638;28;20201;-76
2022/01/30 08:09:41;;;;;;;20.73;4.77;;;;;;;3.97;68.63;101896.19;5072391;28;20216;-78
2022/01/30 08:12:09;;;;;;;13.47;4.43;;;;;;;4.01;68.92;101930.75;5072838;28;20201;-78
2022/01/30 08:14:35;;;;;;;23.47;4.90;;;;;;;4.00;68.54;101934.13;5067713;28;20226;-77
2022/01/30 08:17:02;;;;;;;20.17;4.53;;;;;;;3.96;69.51;101940.03;5061004;28;20669;-79
2022/01/30 08:19:28;;;;;;;21.83;3.83;;;;;;;3.92;69.76;101923.56;5059344;28;20266;-77
2022/01/30 08:21:58;;;;;;;22.87;3.97;;;;;;;3.91;70.43;101903.72;5061676;28;20197;-77
2022/01/30 08:24:24;;;;;;;18.90;4.57;;;;;;;3.94;70.36;101919.34;5060607;28;20230;-77
2022/01/30 08:26:51;;;;;;;22.13;5.00;;;;;;;3.92;70.91;101914.94;5060402;28;20210;-76
2022/01/30 08:29:17;;;;;;;15.30;4.80;;;;;;;4.03;69.66;101923.03;5060928;28;20196;-77
2022/01/30 08:31:44;;;;;;;18.53;3.27;;;;;;;4.08;69.95;101940.41;5062593;28;20197;-78
2022/01/30 08:34:10;;;;;;;18.20;3.90;;;;;;;4.16;69.07;101954.50;5062689;28;20729;-77
2022/01/30 08:36:37;;;;;;;9.90;3.53;;;;;;;4.21;69.19;101971.84;5063231;28;20259;-78
2022/01/30 08:39:04;;;;;;;18.97;4.33;;;;;;;4.23;68.14;102008.97;5060565;28;20249;-77
2022/01/30 08:41:31;;;;;;;18.50;3.90;;;;;;;4.23;68.40;102004.66;5059881;28;20201;-76
2022/01/30 08:43:57;;;;;;;19.47;4.63;;;;;;;4.25;67.78;102008.16;5061344;28;20229;-76
2022/01/30 08:46:23;;;;;;;19.50;4.60;;;;;;;4.22;67.72;102010.66;5062022;28;20672;-76
2022/01/30 08:48:50;;;;;;;15.17;4.53;;;;;;;4.25;67.74;101999.56;5060693;28;20269;-77
2022/01/30 08:51:16;;;;;;;15.70;3.70;;;;;;;4.28;66.72;102036.72;5060965;28;20205;-77
2022/01/30 08:53:43;;;;;;;18.48;4.78;;;;;;;4.31;66.52;102054.91;5060296;28;20487;-77
2022/01/30 08:56:10;;;;;;;28.23;5.00;;;;;;;4.32;65.90;102054.09;5062111;28;20735;-76
2022/01/30 08:58:37;;;;;;;16.17;4.70;;;;;;;4.34;65.97;102054.09;5061415;28;20260;-77
2022/01/30 09:01:03;;;;;;;17.70;4.23;;;;;;;4.36;65.22;102080.88;5059886;28;20192;-76
2022/01/30 09:03:30;;;;;;;18.83;4.63;;;;;;;4.42;64.52;102085.38;5061642;28;20638;-77
2022/01/30 09:05:56;;;;;;;20.93;3.87;;;;;;;4.38;65.41;102098.22;5063854;28;20202;-77
2022/01/30 09:08:22;;;;;;;26.20;5.20;;;;;;;4.42;64.91;102103.47;5060444;28;20201;-77
2022/01/30 09:10:49;;;;;;;12.67;3.77;;;;;;;4.44;64.74;102122.50;5061710;28;20258;-78
2022/01/30 09:13:17;;;;;;;18.80;4.13;;;;;;;4.45;65.00;102113.94;5060664;28;20736;-76
2022/01/30 09:15:43;;;;;;;23.50;4.37;;;;;;;4.43;65.09;102113.88;5060400;28;20251;-78
2022/01/30 09:18:12;;;;;;;15.93;5.37;;;;;;;4.42;65.33;102119.00;5061156;28;20199;-77
2022/01/30 09:20:40;;;;;;;22.70;4.03;;;;;;;4.47;65.72;102130.38;5060387;28;20198;-78
2022/01/30 09:23:07;;;;;;;15.87;3.67;;;;;;;4.41;65.35;102118.13;5061377;28;20309;-76
2022/01/30 09:25:34;;;;;;;14.97;3.70;;;;;;;4.38;66.51;102094.78;5060641;28;20205;-77
2022/01/30 09:28:00;;;;;;;13.53;3.87;;;;;;;4.43;65.62;102097.50;5060667;28;20208;-75
2022/01/30 09:30:28;;;;;;;19.77;5.20;;;;;;;4.49;65.78;102123.56;5062246;28;20193;-77
2022/01/30 09:32:55;;;;;;;12.33;4.27;;;;;;;4.48;65.85;102109.75;5060283;28;20259;-78
2022/01/30 09:35:21;;;;;;;24.60;4.37;;;;;;;4.52;66.68;102113.28;5064872;28;20236;-76
2022/01/30 09:37:48;;;;;;;22.37;8.80;;;;;;;4.49;65.87;102120.97;5059994;28;20197;-78
2022/01/30 09:40:17;;;;;;;16.60;4.30;;;;;;;4.52;67.13;102100.38;5060919;28;20207;-76
2022/01/30 09:42:44;;;;;;;41.03;11.17;;;;;;;4.44;67.70;102070.78;5061652;28;20257;-75
2022/01/30 09:45:12;;;;;;;14.30;5.50;;;;;;;4.46;68.14;102069.13;5058839;28;20197;-75
2022/01/30 09:47:40;;;;;;;11.80;4.10;;;;;;;4.53;66.91;102099.56;5059383;28;20213;-76
2022/01/30 09:50:08;;;;;;;21.03;6.93;;;;;;;4.56;67.17;102118.63;5061073;28;20281;-76
2022/01/30 09:52:36;;;;;;;12.77;5.10;;;;;;;4.63;67.06;102124.88;5064478;28;20202;-76
2022/01/30 09:55:03;;;;;;;21.53;5.97;;;;;;;4.72;67.23;102106.22;5067829;28;20292;-77
2022/01/30 09:57:29;;;;;;;12.30;4.40;;;;;;;4.64;67.55;102108.53;5063101;28;20199;-75
2022/01/30 09:59:56;;;;;;;24.35;6.20;;;;;;;4.63;67.82;102086.09;5063061;28;20859;-76
2022/01/30 10:02:25;;;;;;;19.27;3.67;;;;;;;4.63;68.40;102062.81;5064143;28;20234;-76
2022/01/30 10:04:54;;;;;;;25.57;6.27;;;;;;;4.71;68.98;102069.09;5065807;28;20227;-74
2022/01/30 10:07:25;;;;;;;17.40;5.33;;;;;;;4.67;68.40;102084.47;5065091;28;20202;-76
2022/01/30 10:09:52;;;;;;;28.53;5.60;;;;;;;4.69;68.72;102057.81;5062755;28;20212;-77
2022/01/30 10:12:20;;;;;;;23.80;6.60;;;;;;;4.64;68.40;102051.66;5063741;28;20252;-76
2022/01/30 10:14:51;;;;;;;20.87;6.77;;;;;;;4.68;68.88;102055.22;5062520;28;20308;-76
2022/01/30 10:17:26;;;;;;;25.23;6.97;;;;;;;4.73;69.83;102057.09;5063748;28;20219;-76
2022/01/30 10:20:03;;;;;;;24.33;5.10;;;;;;;4.66;69.86;102072.38;5061928;28;20207;-76
2022/01/30 10:22:30;;;;;;;28.03;6.30;;;;;;;4.63;69.70;102065.41;5062503;28;20234;-76
2022/01/30 10:24:57;;;;;;;23.37;6.20;;;;;;;4.58;69.76;102051.47;5062703;28;20656;-76
2022/01/30 10:27:27;;;;;;;18.27;5.20;;;;;;;4.66;70.12;102051.66;5064304;28;20337;-75
2022/01/30 10:29:58;;;;;;;25.80;6.27;;;;;;;4.67;69.98;102054.31;5062778;28;20329;-76
2022/01/30 10:32:26;;;;;;;18.20;5.43;;;;;;;4.73;68.64;102080.38;5063679;28;20269;-76
2022/01/30 10:34:58;;;;;;;20.63;5.30;;;;;;;4.78;68.52;102101.22;5064955;28;20230;-75
2022/01/30 10:37:26;;;;;;;22.27;4.80;;;;;;;4.80;69.19;102107.34;5062593;28;20206;-76
2022/01/30 10:40:03;;;;;;;21.40;5.40;;;;;;;4.75;69.56;102086.47;5061682;28;20206;-74
2022/01/30 10:42:31;;;;;;;24.80;6.70;;;;;;;4.74;69.86;102087.31;5062517;28;20226;-76
2022/01/30 10:44:58;;;;;;;21.83;6.63;;;;;;;4.70;69.25;102079.41;5062949;28;20222;-77
2022/01/30 10:47:25;;;;;;;24.93;5.50;;;;;;;4.81;69.42;102069.41;5064217;28;20198;-77
2022/01/30 10:49:51;;;;;;;21.17;5.60;;;;;;;4.74;69.82;102061.44;5061119;28;20208;-76
2022/01/30 10:52:19;;;;;;;17.90;5.53;;;;;;;4.77;69.76;102061.53;5063317;28;20630;-76
2022/01/30 10:54:50;;;;;;;19.43;4.57;;;;;;;4.85;69.96;102072.13;5063900;28;20216;-76
2022/01/30 10:57:17;;;;;;;20.33;5.60;;;;;;;4.78;69.24;102073.66;5063653;28;20259;-77
2022/01/30 10:59:53;;;;;;;21.43;5.83;;;;;;;4.82;69.12;102069.44;5063951;28;20203;-76
2022/01/30 11:02:22;;;;;;;26.30;6.53;;;;;;;4.79;69.09;102064.16;5064104;28;20285;-76
2022/01/30 11:04:50;;;;;;;22.67;5.17;;;;;;;4.82;68.81;102061.69;5063509;28;20227;-76
2022/01/30 11:07:20;;;;;;;20.83;6.50;;;;;;;4.82;69.58;102055.66;5065190;28;20241;-76
2022/01/30 11:09:58;;;;;;;19.97;5.40;;;;;;;4.82;69.86;102063.41;5061425;28;20902;-76
2022/01/30 11:12:34;;;;;;;22.43;4.63;;;;;;;4.92;69.00;102060.25;5062304;28;20209;-77
2022/01/30 11:15:16;;;;;;;24.70;5.97;;;;;;;4.85;68.34;102092.81;5062779;28;20216;-76
2022/01/30 11:17:44;;;;;;;17.70;6.67;;;;;;;4.89;68.05;102104.13;5064209;28;20208;-77
2022/01/30 11:20:13;;;;;;;19.77;6.47;;;;;;;4.92;68.10;102112.88;5061390;28;20200;-76
2022/01/30 11:22:41;;;;;;;20.90;5.27;;;;;;;5.00;68.16;102097.59;5062703;28;20213;-74
2022/01/30 11:25:13;;;;;;;23.97;6.00;;;;;;;5.04;68.16;102120.16;5063064;28;20245;-77
2022/01/30 11:27:41;;;;;;;27.20;6.47;;;;;;;4.95;68.29;102117.25;5063300;28;20204;-76
2022/01/30 11:30:09;;;;;;;23.30;5.90;;;;;;;4.95;68.50;102106.91;5064344;28;20201;-75
2022/01/30 11:32:36;;;;;;;33.43;6.70;;;;;;;4.93;68.63;102112.03;5071474;28;20210;-77
2022/01/30 11:35:03;;;;;;;22.23;5.67;;;;;;;4.93;68.80;102101.69;5070870;28;20230;-77
2022/01/30 11:37:36;;;;;;;17.43;6.07;;;;;;;4.84;68.36;102101.41;5072362;28;20198;-78
2022/01/30 11:40:13;;;;;;;31.83;5.83;;;;;;;4.86;68.74;102101.47;5072722;28;20578;-77
2022/01/30 11:42:44;;;;;;;22.90;8.23;;;;;;;4.85;68.24;102115.22;5073208;28;20208;-75
2022/01/30 11:45:24;;;;;;;22.17;5.30;;;;;;;4.85;68.09;102120.41;5072946;28;20221;-75
2022/01/30 11:47:52;;;;;;;29.80;7.23;;;;;;;4.80;69.07;102101.25;5073463;28;20208;-78
2022/01/30 11:50:19;;;;;;;20.00;4.73;;;;;;;4.85;68.10;102107.47;5072858;28;20215;-77
2022/01/30 11:52:58;;;;;;;27.20;5.80;;;;;;;4.90;67.91;102150.78;5073150;28;20206;-76
2022/01/30 11:55:48;;;;;;;19.23;6.27;;;;;;;4.92;68.14;102156.88;5060870;28;20282;-74
2022/01/30 11:58:54;;;;;;;31.27;5.93;;;;;;;4.89;67.12;102155.88;5052980;28;20212;-76
2022/01/30 12:01:36;;;;;;;31.83;5.83;;;;;;;4.96;67.46;102184.59;5023117;28;20208;-76
2022/01/30 12:04:17;;;;;;;23.97;7.33;;;;;;;4.96;67.17;102163.03;5029174;28;20715;-75
2022/01/30 12:06:50;;;;;;;23.92;6.32;;;;;;;4.87;67.63;102179.13;5058411;28;20434;-74